Capitol Logistics 456


KIAD
Washington Dulles International Airport
Dulles, Virginia, US
KRFD
Chicago/Rockford International Airport
Rockford, Illinois, US

Route Details

Aircraft Information
Primary: Boeing 757-200SF
Backup: Boeing 737-800BCF
Route Data
Distance: 626nm
Sched. Duration: 1h 39m
Avg. Duration: 1h 53m (+13m)
Times Flown: 11
Recm'd Route: BUNZZ3 RAMAY Q72 HACKS J149 FWA V340 OXI JOT
Planned Altitude: 36,000ft
Origin Wx: KIAD 270116Z 12011KT 2 1/2SM BR OVC004 09/08 A2960 RMK AO2 PRESFR T00940083
Dest. Wx: KRFD 270054Z 32005KT 10SM OVC045 M02/M09 A3015 RMK AO2 SLP221 T10221089
Notes:

Financial History
Total Freight: 906,851lbs
Average Load: 82,441lbs/flt
Fuel Used: 173,890lbs
Avg. Fuel Used: 15,808lbs/flt
Fuel Expense: $222,918
Avg. Fuel Expense: $20,265
Avg. Fuel Cost: $1.25/lbs
Total Gross Income: $1,160,936
Pilot Pay: $1,639
Total Expenses: $122,575
Total Revenue: $810,963
Average Revenue: $105,539.64